createdAt,value
2017-11-18T00:00:36.085Z,1023.23
2017-11-18T00:01:36.556Z,1023.20
2017-11-18T00:02:35.977Z,1023.21
2017-11-18T00:03:36.426Z,1023.19
2017-11-18T00:04:36.203Z,1023.17
2017-11-18T00:05:36.641Z,1023.17
2017-11-18T00:06:36.067Z,1023.18
2017-11-18T00:07:35.962Z,1023.18
2017-11-18T00:08:36.510Z,1023.21
2017-11-18T00:09:35.921Z,1023.17
2017-11-18T00:10:36.472Z,1023.13
2017-11-18T00:11:36.010Z,1023.12
2017-11-18T00:12:35.921Z,1023.11
2017-11-18T00:13:38.157Z,1023.08
2017-11-18T00:14:36.642Z,1023.06
2017-11-18T00:15:35.994Z,1023.02
2017-11-18T00:16:36.528Z,1023.04
2017-11-18T00:17:36.010Z,1023.01
2017-11-18T00:18:36.494Z,1023.03
2017-11-18T00:19:35.884Z,1023.06
2017-11-18T00:20:35.895Z,1023.00
2017-11-18T00:21:36.884Z,1022.98
2017-11-18T00:22:36.337Z,1023.03
2017-11-18T00:23:36.164Z,1023.01
2017-11-18T00:24:36.640Z,1022.95
2017-11-18T00:25:36.070Z,1022.95
2017-11-18T00:26:36.849Z,1022.95
2017-11-18T00:27:36.204Z,1022.97
2017-11-18T00:28:36.638Z,1022.95
2017-11-18T00:29:36.668Z,1022.98
2017-11-18T00:30:36.112Z,1022.94
2017-11-18T00:31:36.626Z,1022.97
2017-11-18T00:32:36.114Z,1022.98
2017-11-18T00:33:36.550Z,1022.92
2017-11-18T00:34:35.995Z,1022.98
2017-11-18T00:35:35.745Z,1022.94
2017-11-18T00:36:36.189Z,1022.91
2017-11-18T00:37:37.049Z,1022.94
2017-11-18T00:38:36.528Z,1022.92
2017-11-18T00:39:35.963Z,1022.94
2017-11-18T00:40:36.373Z,1022.83
2017-11-18T00:41:35.876Z,1022.82
2017-11-18T00:42:36.366Z,1022.81
2017-11-18T00:43:35.846Z,1022.80
2017-11-18T00:44:36.310Z,1022.75
2017-11-18T00:45:35.816Z,1022.79
2017-11-18T00:46:36.058Z,1022.70
2017-11-18T00:47:36.951Z,1022.70
2017-11-18T00:48:36.339Z,1022.73
2017-11-18T00:49:35.788Z,1022.72
2017-11-18T00:50:36.181Z,1022.73
2017-11-18T00:51:36.627Z,1022.70
2017-11-18T00:52:36.042Z,1022.68
2017-11-18T00:53:37.110Z,1022.64
2017-11-18T00:54:36.181Z,1022.63
2017-11-18T00:55:36.605Z,1022.60
2017-11-18T00:56:36.024Z,1022.59
2017-11-18T00:57:36.445Z,1022.58
2017-11-18T00:58:35.841Z,1022.57
2017-11-18T00:59:36.328Z,1022.62
2017-11-18T01:00:35.662Z,1022.59
2017-11-18T01:01:36.099Z,1022.56
2017-11-18T01:02:36.493Z,1022.56
2017-11-18T01:03:35.900Z,1022.55
2017-11-18T01:04:36.371Z,1022.50
2017-11-18T01:05:35.795Z,1022.40
2017-11-18T01:06:36.151Z,1022.40
2017-11-18T01:07:35.967Z,1022.35
2017-11-18T01:08:37.040Z,1022.33
2017-11-18T01:09:36.483Z,1022.29
2017-11-18T01:10:35.915Z,1022.25
2017-11-18T01:11:36.318Z,1022.20
2017-11-18T01:12:35.720Z,1022.24
2017-11-18T01:13:36.118Z,1022.21
2017-11-18T01:14:36.580Z,1022.21
2017-11-18T01:15:35.666Z,1022.22
2017-11-18T01:16:35.996Z,1022.23
2017-11-18T01:17:36.349Z,1022.27
2017-11-18T01:18:36.419Z,1022.22
2017-11-18T01:19:36.012Z,1022.16
2017-11-18T01:20:36.585Z,1022.15
2017-11-18T01:21:36.019Z,1022.15
2017-11-18T01:22:36.369Z,1022.15
2017-11-18T01:23:35.761Z,1022.12
2017-11-18T01:24:36.251Z,1022.10
2017-11-18T01:25:36.934Z,1022.06
2017-11-18T01:26:36.304Z,1022.08
2017-11-18T01:27:35.674Z,1022.11
2017-11-18T01:28:36.021Z,1022.06
2017-11-18T01:29:35.708Z,1022.05
2017-11-18T01:30:36.226Z,1022.07
2017-11-18T01:31:35.707Z,1022.10
2017-11-18T01:32:36.543Z,1022.05
2017-11-18T01:33:35.938Z,1022.10
2017-11-18T01:34:36.333Z,1022.09
2017-11-18T01:35:36.006Z,1022.08
2017-11-18T01:36:36.533Z,1022.08
2017-11-18T01:37:35.958Z,1022.09
2017-11-18T01:38:36.370Z,1022.01
2017-11-18T01:39:35.712Z,1022.05
2017-11-18T01:40:36.745Z,1022.07
2017-11-18T01:41:36.084Z,1022.01
2017-11-18T01:42:36.223Z,1021.94
2017-11-18T01:43:36.923Z,1021.94
2017-11-18T01:44:36.269Z,1021.92
2017-11-18T01:45:35.700Z,1021.89
2017-11-18T01:46:35.919Z,1021.91
2017-11-18T01:47:36.313Z,1021.86
2017-11-18T01:49:02.929Z,1021.84
2017-11-18T01:49:33.390Z,1021.82
2017-11-18T01:50:33.685Z,1021.82
2017-11-18T01:51:34.223Z,1021.78
2017-11-18T01:52:33.633Z,1021.74
2017-11-18T01:53:34.180Z,1021.69
2017-11-18T01:54:33.532Z,1021.69
2017-11-18T01:55:33.889Z,1021.70
2017-11-18T01:56:34.243Z,1021.68
2017-11-18T01:57:33.649Z,1021.66
2017-11-18T01:58:34.016Z,1021.71
2017-11-18T01:59:33.362Z,1021.64
2017-11-18T02:00:33.756Z,1021.67
2017-11-18T02:01:34.039Z,1021.68
2017-11-18T02:02:33.426Z,1021.63
2017-11-18T02:03:33.893Z,1021.59
2017-11-18T02:04:34.236Z,1021.60
2017-11-18T02:05:33.620Z,1021.52
2017-11-18T02:06:33.962Z,1021.49
2017-11-18T02:07:33.399Z,1021.51
2017-11-18T02:08:34.235Z,1021.50
2017-11-18T02:09:33.573Z,1021.45
2017-11-18T02:10:34.096Z,1021.40
2017-11-18T02:11:33.419Z,1021.39
2017-11-18T02:12:34.033Z,1021.38
2017-11-18T02:13:33.378Z,1021.41
2017-11-18T02:14:34.166Z,1021.41
2017-11-18T02:15:34.205Z,1021.38
2017-11-18T02:16:33.638Z,1021.43
2017-11-18T02:17:34.003Z,1021.40
2017-11-18T02:18:33.404Z,1021.34
2017-11-18T02:19:33.703Z,1021.35
2017-11-18T02:20:34.077Z,1021.34
2017-11-18T02:21:33.522Z,1021.30
2017-11-18T02:22:33.923Z,1021.33
2017-11-18T02:23:34.298Z,1021.32
2017-11-18T02:24:33.645Z,1021.28
2017-11-18T02:25:34.092Z,1021.32
2017-11-18T02:26:33.426Z,1021.34
2017-11-18T02:27:33.728Z,1021.30
2017-11-18T02:28:33.976Z,1021.27
2017-11-18T02:29:33.357Z,1021.31
2017-11-18T02:30:33.679Z,1021.32
2017-11-18T02:31:34.038Z,1021.35
2017-11-18T02:32:33.427Z,1021.33
2017-11-18T02:33:34.346Z,1021.28
2017-11-18T02:34:34.019Z,1021.27
2017-11-18T02:35:33.311Z,1021.28
2017-11-18T02:36:33.709Z,1021.23
2017-11-18T02:37:34.112Z,1021.19
2017-11-18T02:38:33.391Z,1021.19
2017-11-18T02:39:34.021Z,1021.19
2017-11-18T02:40:33.322Z,1021.16
2017-11-18T02:41:33.828Z,1021.16
2017-11-18T02:42:34.341Z,1021.14
2017-11-18T02:43:33.891Z,1021.11
2017-11-18T02:44:34.224Z,1021.08
2017-11-18T02:45:33.519Z,1021.10
2017-11-18T02:46:33.854Z,1021.12
2017-11-18T02:47:34.172Z,1021.08
2017-11-18T02:48:33.545Z,1021.05
2017-11-18T02:49:33.666Z,1021.03
2017-11-18T02:50:34.109Z,1021.03
2017-11-18T02:51:33.426Z,1021.02
2017-11-18T02:52:33.764Z,1021.01
2017-11-18T02:53:34.169Z,1020.98
2017-11-18T02:54:34.109Z,1020.94
2017-11-18T02:55:33.888Z,1020.90
2017-11-18T02:56:33.442Z,1020.87
2017-11-18T02:57:34.262Z,1020.86
2017-11-18T02:58:33.959Z,1020.81
2017-11-18T02:59:33.405Z,1020.83
2017-11-18T03:00:33.912Z,1020.87
2017-11-18T03:01:34.645Z,1020.78
2017-11-18T03:02:33.920Z,1020.78
2017-11-18T03:03:34.240Z,1020.78
2017-11-18T03:04:33.511Z,1020.78
2017-11-18T03:05:33.947Z,1020.77
2017-11-18T03:06:34.313Z,1020.79
2017-11-18T03:07:33.683Z,1020.76
2017-11-18T03:08:34.004Z,1020.69
2017-11-18T03:09:33.381Z,1020.66
2017-11-18T03:10:34.124Z,1020.63
2017-11-18T03:11:33.482Z,1020.60
2017-11-18T03:12:33.825Z,1020.60
2017-11-18T03:13:33.348Z,1020.59
2017-11-18T03:14:33.659Z,1020.63
2017-11-18T03:15:33.990Z,1020.57
2017-11-18T03:16:33.584Z,1020.58
2017-11-18T03:17:33.464Z,1020.54
2017-11-18T03:18:33.815Z,1020.52
2017-11-18T03:19:34.124Z,1020.51
2017-11-18T03:20:33.715Z,1020.47
2017-11-18T03:21:34.005Z,1020.48
2017-11-18T03:22:33.352Z,1020.43
2017-11-18T03:23:33.349Z,1020.44
2017-11-18T03:24:34.355Z,1020.48
2017-11-18T03:25:33.679Z,1020.44
2017-11-18T03:26:34.044Z,1020.42
2017-11-18T03:27:33.516Z,1020.33
2017-11-18T03:28:33.745Z,1020.31
2017-11-18T03:29:34.044Z,1020.34
2017-11-18T03:30:33.449Z,1020.42
2017-11-18T03:31:33.845Z,1020.29
2017-11-18T03:32:34.207Z,1020.33
2017-11-18T03:33:33.517Z,1020.33
2017-11-18T03:34:33.846Z,1020.36
2017-11-18T03:35:34.472Z,1020.34
2017-11-18T03:36:33.785Z,1020.37
2017-11-18T03:37:34.121Z,1020.30
2017-11-18T03:38:33.473Z,1020.35
2017-11-18T03:39:33.746Z,1020.27
2017-11-18T03:40:34.102Z,1020.27
2017-11-18T03:41:34.301Z,1020.28
2017-11-18T03:42:33.802Z,1020.26
2017-11-18T03:43:34.176Z,1020.28
2017-11-18T03:44:33.573Z,1020.22
2017-11-18T03:45:33.840Z,1020.24
2017-11-18T03:46:33.952Z,1020.21
2017-11-18T03:47:34.282Z,1020.21
2017-11-18T03:48:34.113Z,1020.14
2017-11-18T03:49:33.644Z,1020.19
2017-11-18T03:50:34.128Z,1020.22
2017-11-18T03:51:33.496Z,1020.21
2017-11-18T03:52:33.745Z,1020.20
2017-11-18T03:53:34.111Z,1020.14
2017-11-18T03:54:33.475Z,1020.16
2017-11-18T03:55:33.421Z,1020.19
2017-11-18T03:56:34.049Z,1020.18
2017-11-18T03:57:33.291Z,1020.18
2017-11-18T03:58:33.666Z,1020.17
2017-11-18T03:59:34.016Z,1020.17
2017-11-18T04:00:33.362Z,1020.22
2017-11-18T04:01:34.009Z,1020.16
2017-11-18T04:02:33.496Z,1020.23
2017-11-18T04:03:33.856Z,1020.15
2017-11-18T04:04:33.812Z,1020.11
2017-11-18T04:05:34.146Z,1020.09
2017-11-18T04:06:33.692Z,1020.09
2017-11-18T04:07:34.165Z,1020.04
2017-11-18T04:08:33.540Z,1020.04
2017-11-18T04:09:33.889Z,1020.01
2017-11-18T04:10:34.234Z,1019.99
2017-11-18T04:11:34.004Z,1020.00
2017-11-18T04:12:33.469Z,1020.05
2017-11-18T04:13:33.722Z,1020.05
2017-11-18T04:14:34.062Z,1020.00
2017-11-18T04:15:33.615Z,1019.92
2017-11-18T04:16:34.065Z,1019.93
2017-11-18T04:17:33.393Z,1019.91
2017-11-18T04:18:33.857Z,1019.97
2017-11-18T04:19:33.836Z,1019.95
2017-11-18T04:20:34.203Z,1019.94
2017-11-18T04:21:33.602Z,1019.89
2017-11-18T04:22:33.950Z,1019.90
2017-11-18T04:23:33.314Z,1019.89
2017-11-18T04:24:33.749Z,1019.88
2017-11-18T04:25:33.807Z,1019.85
2017-11-18T04:26:34.485Z,1019.77
2017-11-18T04:27:33.783Z,1019.84
2017-11-18T04:28:34.060Z,1019.77
2017-11-18T04:29:34.081Z,1019.74
2017-11-18T04:30:33.359Z,1019.70
2017-11-18T04:31:33.720Z,1019.64
2017-11-18T04:32:34.554Z,1019.66
2017-11-18T04:33:34.002Z,1019.66
2017-11-18T04:34:33.359Z,1019.60
2017-11-18T04:35:33.893Z,1019.56
2017-11-18T04:36:34.078Z,1019.57
2017-11-18T04:37:33.552Z,1019.55
2017-11-18T04:38:34.160Z,1019.53
2017-11-18T04:39:34.084Z,1019.48
2017-11-18T04:40:33.473Z,1019.45
2017-11-18T04:41:33.870Z,1019.48
2017-11-18T04:42:34.074Z,1019.49
2017-11-18T04:43:33.962Z,1019.50
2017-11-18T04:44:33.268Z,1019.43
2017-11-18T04:45:33.608Z,1019.50
2017-11-18T04:46:33.913Z,1019.49
2017-11-18T04:47:33.440Z,1019.52
2017-11-18T04:48:33.451Z,1019.49
2017-11-18T04:49:33.726Z,1019.48
2017-11-18T04:50:33.801Z,1019.48
2017-11-18T04:51:34.125Z,1019.48
2017-11-18T04:52:34.151Z,1019.47
2017-11-18T04:53:34.087Z,1019.44
2017-11-18T04:54:33.448Z,1019.41
2017-11-18T04:55:33.793Z,1019.37
2017-11-18T04:56:34.169Z,1019.36
2017-11-18T04:57:33.508Z,1019.38
2017-11-18T04:58:34.212Z,1019.34
2017-11-18T04:59:33.725Z,1019.34
2017-11-18T05:00:33.491Z,1019.30
2017-11-18T05:01:33.828Z,1019.27
2017-11-18T05:02:34.197Z,1019.27
2017-11-18T05:03:34.081Z,1019.29
2017-11-18T05:04:33.501Z,1019.27
2017-11-18T05:05:33.885Z,1019.18
2017-11-18T05:06:33.806Z,1019.20
2017-11-18T05:07:34.478Z,1019.18
2017-11-18T05:08:33.887Z,1019.17
2017-11-18T05:09:33.395Z,1019.15
2017-11-18T05:10:33.831Z,1019.19
2017-11-18T05:11:33.448Z,1019.16
2017-11-18T05:12:33.832Z,1019.09
2017-11-18T05:13:34.206Z,1019.12
2017-11-18T05:14:34.068Z,1019.11
2017-11-18T05:15:33.720Z,1019.05
2017-11-18T05:16:34.206Z,1019.10
2017-11-18T05:17:33.370Z,1019.04
2017-11-18T05:18:33.856Z,1019.03
2017-11-18T05:19:33.477Z,1019.01
2017-11-18T05:20:33.940Z,1019.06
2017-11-18T05:21:33.292Z,1019.05
2017-11-18T05:22:33.664Z,1019.01
2017-11-18T05:23:34.442Z,1019.03
2017-11-18T05:24:33.996Z,1018.97
2017-11-18T05:25:33.422Z,1019.01
2017-11-18T05:26:33.887Z,1019.05
2017-11-18T05:27:33.911Z,1019.00
2017-11-18T05:28:33.332Z,1018.99
2017-11-18T05:29:34.182Z,1018.96
2017-11-18T05:30:33.625Z,1018.94
2017-11-18T05:31:33.707Z,1018.97
2017-11-18T05:32:34.046Z,1018.88
2017-11-18T05:33:47.442Z,1018.91
2017-11-18T05:34:48.075Z,1018.97
2017-11-18T05:35:47.879Z,1018.94
2017-11-18T05:36:48.381Z,1018.93
2017-11-18T05:37:47.832Z,1018.96
2017-11-18T05:38:48.248Z,1018.94
2017-11-18T05:39:47.952Z,1018.90
2017-11-18T05:40:47.661Z,1018.88
2017-11-18T05:41:48.181Z,1018.84
2017-11-18T05:42:47.740Z,1018.85
2017-11-18T05:43:48.150Z,1018.79
2017-11-18T05:44:47.587Z,1018.79
2017-11-18T05:45:48.068Z,1018.75
2017-11-18T05:46:47.458Z,1018.77
2017-11-18T05:47:47.926Z,1018.66
2017-11-18T05:48:48.326Z,1018.72
2017-11-18T05:49:47.757Z,1018.69
2017-11-18T05:50:47.882Z,1018.67
2017-11-18T05:51:48.584Z,1018.62
2017-11-18T05:52:48.189Z,1018.59
2017-11-18T05:53:47.645Z,1018.61
2017-11-18T05:54:48.254Z,1018.57
2017-11-18T05:55:48.239Z,1018.57
2017-11-18T05:56:47.731Z,1018.54
2017-11-18T05:57:47.469Z,1018.48
2017-11-18T05:58:47.716Z,1018.56
2017-11-18T05:59:48.462Z,1018.53
2017-11-18T06:00:47.922Z,1018.52
2017-11-18T06:01:48.284Z,1018.49
2017-11-18T06:02:47.806Z,1018.46
2017-11-18T06:03:48.270Z,1018.52
2017-11-18T06:04:48.083Z,1018.51
2017-11-18T06:05:48.066Z,1018.48
2017-11-18T06:06:47.543Z,1018.53
2017-11-18T06:07:48.055Z,1018.51
2017-11-18T06:08:47.596Z,1018.41
2017-11-18T06:09:48.075Z,1018.33
2017-11-18T06:10:47.657Z,1018.35
2017-11-18T06:11:48.257Z,1018.34
2017-11-18T06:12:47.793Z,1018.34
2017-11-18T06:13:48.258Z,1018.33
2017-11-18T06:14:47.839Z,1018.29
2017-11-18T06:15:48.328Z,1018.28
2017-11-18T06:16:47.908Z,1018.31
2017-11-18T06:17:48.530Z,1018.37
2017-11-18T06:18:48.322Z,1018.36
2017-11-18T06:19:48.132Z,1018.34
2017-11-18T06:20:47.844Z,1018.36
2017-11-18T06:21:48.436Z,1018.36
2017-11-18T06:22:47.881Z,1018.36
2017-11-18T06:23:47.950Z,1018.34
2017-11-18T06:24:47.802Z,1018.37
2017-11-18T06:25:48.366Z,1018.31
2017-11-18T06:26:47.810Z,1018.35
2017-11-18T06:27:48.316Z,1018.32
2017-11-18T06:28:47.619Z,1018.31
2017-11-18T06:29:47.854Z,1018.31
2017-11-18T06:30:48.254Z,1018.33
2017-11-18T06:31:47.737Z,1018.29
2017-11-18T06:32:49.385Z,1018.31
2017-11-18T06:33:48.123Z,1018.27
2017-11-18T06:34:47.716Z,1018.28
2017-11-18T06:35:48.249Z,1018.26
2017-11-18T06:36:48.248Z,1018.26
2017-11-18T06:37:47.783Z,1018.23
2017-11-18T06:38:47.978Z,1018.23
2017-11-18T06:39:48.166Z,1018.28
2017-11-18T06:40:48.322Z,1018.26
2017-11-18T06:41:48.246Z,1018.28
2017-11-18T06:42:47.969Z,1018.31
2017-11-18T06:43:47.637Z,1018.28
2017-11-18T06:44:48.383Z,1018.26
2017-11-18T06:45:47.888Z,1018.29
2017-11-18T06:46:47.642Z,1018.30
2017-11-18T06:47:48.011Z,1018.29
2017-11-18T06:48:47.730Z,1018.30
2017-11-18T06:49:48.182Z,1018.31
2017-11-18T06:50:47.914Z,1018.27
2017-11-18T06:51:48.905Z,1018.25
2017-11-18T06:52:47.759Z,1018.29
2017-11-18T06:53:48.281Z,1018.32
2017-11-18T06:54:47.948Z,1018.30
2017-11-18T06:55:47.597Z,1018.29
2017-11-18T06:56:48.521Z,1018.29
2017-11-18T06:57:48.094Z,1018.34
2017-11-18T06:58:47.610Z,1018.26
2017-11-18T06:59:48.368Z,1018.28
2017-11-18T07:00:47.961Z,1018.29
2017-11-18T07:01:48.286Z,1018.27
2017-11-18T07:02:48.483Z,1018.32
2017-11-18T07:03:48.321Z,1018.27
2017-11-18T07:04:47.920Z,1018.25
2017-11-18T07:05:48.059Z,1018.23
2017-11-18T07:06:47.670Z,1018.21
2017-11-18T07:07:48.189Z,1018.23
2017-11-18T07:08:48.014Z,1018.18
2017-11-18T07:09:47.936Z,1018.22
2017-11-18T07:10:48.526Z,1018.24
2017-11-18T07:11:48.064Z,1018.26
2017-11-18T07:12:48.458Z,1018.17
2017-11-18T07:13:48.027Z,1018.24
2017-11-18T07:14:48.015Z,1018.21
2017-11-18T07:15:47.652Z,1018.20
2017-11-18T07:16:48.119Z,1018.20
2017-11-18T07:17:48.523Z,1018.19
2017-11-18T07:18:48.195Z,1018.14
2017-11-18T07:19:47.785Z,1018.10
2017-11-18T07:20:48.345Z,1018.12
2017-11-18T07:21:48.450Z,1018.14
2017-11-18T07:22:47.934Z,1018.08
2017-11-18T07:23:47.497Z,1018.08
2017-11-18T07:24:48.774Z,1018.07
2017-11-18T07:25:47.812Z,1018.10
2017-11-18T07:26:48.305Z,1018.05
2017-11-18T07:27:47.910Z,1018.02
2017-11-18T07:28:48.495Z,1017.97
2017-11-18T07:29:48.039Z,1018.01
2017-11-18T07:30:47.694Z,1017.99
2017-11-18T07:31:48.293Z,1017.97
2017-11-18T07:32:47.866Z,1017.94
2017-11-18T07:33:48.531Z,1017.97
2017-11-18T07:34:48.249Z,1018.02
2017-11-18T07:35:47.944Z,1017.98
2017-11-18T07:36:47.711Z,1017.98
2017-11-18T07:37:48.275Z,1018.01
2017-11-18T07:38:49.056Z,1017.99
2017-11-18T07:39:47.713Z,1018.00
2017-11-18T07:40:47.928Z,1017.96
2017-11-18T07:41:48.360Z,1017.96
2017-11-18T07:42:48.685Z,1017.93
2017-11-18T07:43:48.814Z,1017.94
2017-11-18T07:44:48.234Z,1017.88
2017-11-18T07:45:48.540Z,1017.89
2017-11-18T07:46:47.840Z,1017.87
2017-11-18T07:47:48.411Z,1017.83
2017-11-18T07:48:48.029Z,1017.81
2017-11-18T07:49:47.643Z,1017.81
2017-11-18T07:50:48.618Z,1017.73
2017-11-18T07:51:48.144Z,1017.74
2017-11-18T07:52:47.882Z,1017.66
2017-11-18T07:53:47.945Z,1017.68
2017-11-18T07:54:47.493Z,1017.61
2017-11-18T07:55:48.281Z,1017.62
2017-11-18T07:56:48.074Z,1017.62
2017-11-18T07:57:47.918Z,1017.58
2017-11-18T07:58:47.845Z,1017.64
2017-11-18T07:59:48.509Z,1017.62
2017-11-18T08:00:47.821Z,1017.61
2017-11-18T08:01:48.652Z,1017.61
2017-11-18T08:02:48.370Z,1017.56
2017-11-18T08:03:48.173Z,1017.57
2017-11-18T08:04:47.870Z,1017.56
2017-11-18T08:05:48.509Z,1017.57
2017-11-18T08:06:48.092Z,1017.52
2017-11-18T08:07:47.781Z,1017.50
2017-11-18T08:08:48.676Z,1017.48
2017-11-18T08:09:48.366Z,1017.49
2017-11-18T08:10:48.007Z,1017.25
2017-11-18T08:11:47.545Z,1017.37
2017-11-18T08:12:48.112Z,1017.43
2017-11-18T08:13:48.388Z,1017.32
2017-11-18T08:14:49.876Z,1017.42
2017-11-18T08:15:48.559Z,1017.38
2017-11-18T08:16:48.298Z,1017.30
2017-11-18T08:17:49.018Z,1017.34
2017-11-18T08:18:47.736Z,1017.31
2017-11-18T08:19:48.488Z,1017.36
2017-11-18T08:20:48.112Z,1017.36
2017-11-18T08:21:48.304Z,1017.31
2017-11-18T08:22:48.720Z,1017.37
2017-11-18T08:23:47.580Z,1017.39
2017-11-18T08:24:48.239Z,1017.38
2017-11-18T08:25:49.437Z,1017.39
2017-11-18T08:26:48.050Z,1017.34
2017-11-18T08:27:52.098Z,1017.32
2017-11-18T08:28:47.784Z,1017.26
2017-11-18T08:29:48.389Z,1017.27
2017-11-18T08:30:48.208Z,1017.24
2017-11-18T08:31:48.302Z,1017.26
2017-11-18T08:32:48.453Z,1017.09
2017-11-18T08:33:49.094Z,1017.10
2017-11-18T08:34:47.817Z,1017.12
2017-11-18T08:35:47.714Z,1017.07
2017-11-18T08:36:47.787Z,1017.08
2017-11-18T08:37:47.721Z,1017.09
2017-11-18T08:38:47.895Z,1017.09
2017-11-18T08:39:48.042Z,1017.04
2017-11-18T08:40:47.631Z,1017.03
2017-11-18T08:41:48.187Z,1016.96
2017-11-18T08:43:01.385Z,1016.91
2017-11-18T08:43:51.127Z,1016.92
2017-11-18T08:44:50.683Z,1016.93
2017-11-18T08:45:50.727Z,1016.94
2017-11-18T08:46:50.233Z,1016.98
2017-11-18T08:47:53.911Z,1016.85
2017-11-18T08:48:49.441Z,1016.85
2017-11-18T08:49:50.503Z,1016.73
2017-11-18T08:50:47.744Z,1016.79
2017-11-18T08:51:50.851Z,1016.72
2017-11-18T08:52:49.332Z,1016.73
2017-11-18T08:53:49.688Z,1016.73
2017-11-18T08:54:49.167Z,1016.68
2017-11-18T08:55:49.247Z,1016.64
2017-11-18T08:56:47.894Z,1016.66
2017-11-18T08:57:48.838Z,1016.66
2017-11-18T08:58:48.254Z,1016.52
2017-11-18T08:59:48.453Z,1016.48
2017-11-18T09:00:48.714Z,1016.41
2017-11-18T09:01:48.333Z,1016.48
2017-11-18T09:02:48.420Z,1016.47
2017-11-18T09:03:48.706Z,1016.40
2017-11-18T09:04:48.234Z,1016.48
2017-11-18T09:05:48.362Z,1016.57
2017-11-18T09:06:48.715Z,1016.66
2017-11-18T09:07:47.652Z,1016.56
2017-11-18T09:08:48.897Z,1016.57
2017-11-18T09:09:48.448Z,1016.63
2017-11-18T09:10:50.663Z,1016.57
2017-11-18T09:11:48.586Z,1016.55
2017-11-18T09:12:47.864Z,1016.56
2017-11-18T09:13:48.293Z,1016.66
2017-11-18T09:14:49.271Z,1016.65
2017-11-18T09:15:48.100Z,1016.62
2017-11-18T09:16:47.817Z,1016.56
2017-11-18T09:17:48.041Z,1016.55
2017-11-18T09:18:47.812Z,1016.48
2017-11-18T09:19:48.570Z,1016.52
2017-11-18T09:20:49.213Z,1016.50
2017-11-18T09:21:48.523Z,1016.44
2017-11-18T09:22:48.175Z,1016.48
2017-11-18T09:23:48.519Z,1016.55
2017-11-18T09:24:48.500Z,1016.44
2017-11-18T09:25:50.729Z,1016.37
2017-11-18T09:26:53.358Z,1016.38
2017-11-18T09:27:52.193Z,1016.38
2017-11-18T09:28:49.037Z,1016.35
2017-11-18T09:29:47.908Z,1016.30
2017-11-18T09:30:50.006Z,1016.21
2017-11-18T09:31:50.057Z,1016.24
2017-11-18T09:32:49.355Z,1016.22
2017-11-18T09:33:48.134Z,1016.29
2017-11-18T09:34:49.953Z,1016.21
2017-11-18T09:35:47.779Z,1016.15
2017-11-18T09:36:49.712Z,1016.19
2017-11-18T09:37:48.047Z,1016.17
2017-11-18T09:38:48.129Z,1016.15
2017-11-18T09:39:48.138Z,1016.18
2017-11-18T09:40:48.270Z,1016.00
2017-11-18T09:41:47.957Z,1016.18
2017-11-18T09:42:48.066Z,1016.18
2017-11-18T09:43:47.902Z,1016.22
2017-11-18T09:44:47.808Z,1016.17
2017-11-18T09:45:47.748Z,1016.11
2017-11-18T09:46:48.721Z,1016.21
2017-11-18T09:47:47.856Z,1016.17
2017-11-18T09:48:47.936Z,1016.19
2017-11-18T09:49:48.872Z,1016.20
2017-11-18T09:50:48.391Z,1016.16
2017-11-18T09:51:48.485Z,1016.06
2017-11-18T09:52:48.133Z,1016.08
2017-11-18T09:53:48.352Z,1016.08
2017-11-18T09:54:47.982Z,1016.14
2017-11-18T09:55:47.924Z,1016.09
2017-11-18T09:56:48.562Z,1016.08
2017-11-18T09:57:48.890Z,1016.03
2017-11-18T09:58:48.657Z,1016.01
2017-11-18T09:59:48.615Z,1016.00
2017-11-18T10:00:48.713Z,1016.06
2017-11-18T10:01:48.372Z,1016.19
2017-11-18T10:02:48.087Z,1016.11
2017-11-18T10:03:47.683Z,1016.07
2017-11-18T10:04:49.015Z,1016.13
2017-11-18T10:05:47.862Z,1016.11
2017-11-18T10:06:49.476Z,1016.10
2017-11-18T10:07:48.673Z,1016.13
2017-11-18T10:08:48.531Z,1016.08
2017-11-18T10:09:49.132Z,1016.00
2017-11-18T10:10:49.219Z,1015.96
2017-11-18T10:11:47.912Z,1015.95
2017-11-18T10:12:49.790Z,1015.79
2017-11-18T10:13:47.979Z,1015.86
2017-11-18T10:14:48.635Z,1015.86
2017-11-18T10:15:48.336Z,1015.85
2017-11-18T10:16:48.491Z,1015.75
2017-11-18T10:17:49.612Z,1015.86
2017-11-18T10:18:48.387Z,1015.73
2017-11-18T10:19:49.504Z,1015.72
2017-11-18T10:20:51.590Z,1015.78
2017-11-18T10:21:48.985Z,1015.72
2017-11-18T10:22:48.345Z,1015.76
2017-11-18T10:23:48.258Z,1015.82
2017-11-18T10:24:51.370Z,1015.74
2017-11-18T10:25:49.451Z,1015.71
2017-11-18T10:26:49.657Z,1015.68
2017-11-18T10:27:48.488Z,1015.70
2017-11-18T10:28:48.809Z,1015.50
2017-11-18T10:29:47.840Z,1015.62
2017-11-18T10:30:48.505Z,1015.52
2017-11-18T10:31:55.853Z,1015.49
2017-11-18T10:32:48.688Z,1015.28
2017-11-18T10:33:47.949Z,1015.46
2017-11-18T10:34:49.925Z,1015.44
2017-11-18T10:35:48.700Z,1015.44
2017-11-18T10:36:48.231Z,1015.40
2017-11-18T10:37:48.116Z,1015.38
2017-11-18T10:38:48.046Z,1015.36
2017-11-18T10:39:48.767Z,1015.39
2017-11-18T10:40:48.719Z,1015.38
2017-11-18T10:41:48.676Z,1015.38
2017-11-18T10:42:49.524Z,1015.32
2017-11-18T10:43:48.415Z,1015.20
2017-11-18T10:44:49.311Z,1015.31
2017-11-18T10:45:50.262Z,1015.34
2017-11-18T10:46:48.083Z,1015.31
2017-11-18T10:47:47.860Z,1015.30
2017-11-18T10:48:48.597Z,1015.27
2017-11-18T10:49:48.445Z,1015.25
2017-11-18T10:50:48.954Z,1015.26
2017-11-18T10:51:48.798Z,1015.29
2017-11-18T10:52:48.504Z,1015.25
2017-11-18T10:53:48.418Z,1015.28
2017-11-18T10:54:48.966Z,1015.24
2017-11-18T10:55:48.740Z,1015.25
2017-11-18T10:56:48.303Z,1015.19
2017-11-18T10:57:48.034Z,1015.17
2017-11-18T10:58:48.037Z,1015.22
2017-11-18T10:59:49.277Z,1015.16
2017-11-18T11:00:48.062Z,1015.15
2017-11-18T11:01:48.773Z,1015.12
2017-11-18T11:02:48.697Z,1014.96
2017-11-18T11:03:48.887Z,1015.12
2017-11-18T11:04:47.818Z,1014.99
2017-11-18T11:05:48.481Z,1014.96
2017-11-18T11:06:48.332Z,1014.96
2017-11-18T11:07:48.261Z,1015.00
2017-11-18T11:08:48.474Z,1014.96
2017-11-18T11:09:48.360Z,1015.01
2017-11-18T11:10:48.363Z,1014.89
2017-11-18T11:11:48.822Z,1014.82
2017-11-18T11:12:49.233Z,1014.80
2017-11-18T11:13:48.152Z,1014.73
2017-11-18T11:14:48.373Z,1014.86
2017-11-18T11:15:48.396Z,1014.76
2017-11-18T11:16:51.174Z,1014.60
2017-11-18T11:17:49.111Z,1014.66
2017-11-18T11:18:49.919Z,1014.49
2017-11-18T11:19:48.571Z,1014.44
2017-11-18T11:20:48.455Z,1014.49
2017-11-18T11:21:48.294Z,1014.41
2017-11-18T11:22:48.558Z,1014.37
2017-11-18T11:23:48.430Z,1014.36
2017-11-18T11:24:48.483Z,1014.51
2017-11-18T11:25:48.479Z,1014.55
2017-11-18T11:26:48.251Z,1014.61
2017-11-18T11:27:48.199Z,1014.62
2017-11-18T11:28:47.881Z,1014.57
2017-11-18T11:29:49.725Z,1014.66
2017-11-18T11:30:48.423Z,1014.53
2017-11-18T11:31:48.334Z,1014.60
2017-11-18T11:32:48.065Z,1014.50
2017-11-18T11:33:47.904Z,1014.47
2017-11-18T11:34:48.627Z,1014.42
2017-11-18T11:35:48.353Z,1014.42
2017-11-18T11:36:48.102Z,1014.37
2017-11-18T11:37:47.918Z,1014.25
2017-11-18T11:38:48.705Z,1014.24
2017-11-18T11:39:48.487Z,1014.24
2017-11-18T11:40:48.011Z,1014.14
2017-11-18T11:41:48.290Z,1014.05
2017-11-18T11:42:48.221Z,1014.14
2017-11-18T11:43:48.456Z,1014.02
2017-11-18T11:44:48.280Z,1014.01
2017-11-18T11:45:48.198Z,1013.91
2017-11-18T11:46:48.598Z,1013.99
2017-11-18T11:47:48.689Z,1014.02
2017-11-18T11:48:51.406Z,1013.96
2017-11-18T11:50:48.803Z,1013.90
2017-11-18T11:51:48.829Z,1013.89
2017-11-18T11:52:48.651Z,1013.88
2017-11-18T11:54:04.398Z,1013.87
2017-11-18T11:54:48.152Z,1013.98
2017-11-18T11:55:48.579Z,1013.97
2017-11-18T11:56:48.324Z,1013.93
2017-11-18T11:57:48.446Z,1013.90
2017-11-18T11:58:48.553Z,1013.77
2017-11-18T11:59:48.441Z,1013.89
2017-11-18T12:00:48.692Z,1013.86
2017-11-18T12:01:48.700Z,1013.87
2017-11-18T12:02:48.555Z,1013.78
2017-11-18T12:03:48.527Z,1013.77
2017-11-18T12:04:49.469Z,1013.72
2017-11-18T12:05:48.196Z,1013.91
2017-11-18T12:06:48.053Z,1013.83